La Palma > ESTACION METEOROLÓGICA Tacande de abajo

DATOS ACTUALES Online

Ultima actulizacion 6 minutos

19.1 ºC

Temperatura

90

Humedad (%)

1014.8

Presión (mb)

0

Precipitación (mm)

0 N

Viento (Km/h)

DATOS DIARIOS

Temperatura últimas 24 horas (ºC)

Humedad últimas 24 horas (%)

Presión atmosférica últimas 24 horas (mb)

Precipitaciones últimas 23 horas (mm)

Viento últimas 24 horas (Km/h)

Hora Temperatura (°C) ºC Precipitación (mm) mm Presión (mb) mb Humedad (%) % Viento (Km/h) km/h
25 - 00:00 19.1 0 1019 75 4.8 SSE
25 - 01:00 19.1 0 1018 74 8 SE
25 - 02:00 18.7 0 1018 81 12.9 SE
25 - 03:00 19.1 0 1017 75 3.2 SE
25 - 04:00 18.8 0 1017 79 4.8 ESE
25 - 05:00 19 0 1016 74 9.7 ESE
25 - 06:00 19.1 0 1016 75 17.7 ESE
25 - 07:00 19.4 0 1017 73 6.4 SSE
25 - 08:00 19 0 1017 83 1.6 WSW
25 - 09:00 19.2 0 1018 86 0 N
25 - 10:00 19.6 0 1018 87 3.2 WSW
25 - 11:00 19.6 0 1018 86 3.2 WSW
25 - 12:00 19.2 0.5 1018 88 3.2 WSW
25 - 13:00 19.1 6.6 1018 90 3.2 W
25 - 14:00 19.2 11.4 1017 92 0 N
25 - 15:00 19.6 14.2 1016 92 3.2 ENE
25 - 16:00 20.3 14.5 1015 92 0 N
25 - 17:00 20 14.7 1016 92 1.6 WSW
25 - 18:00 19.6 15.5 1016 92 1.6 WSW
25 - 19:00 19.7 17 1016 92 3.2 E
25 - 20:00 19.5 17.5 1015 91 12.9 ENE
25 - 21:00 19.6 17.5 1016 89 1.6 ESE
25 - 22:00 19.9 17.5 1016 87 12.9 ESE
25 - 23:00 19.8 17.5 1015 88 8 WSW
26 - 00:00 19.1 0 1015 90 0 N
Apalmet utiliza cookies propias y de terceros para mejorar la usabilidad y la experiencia web. Política de cookies.